الصفحة الرئيسية
METAR-TAF:

METAR-TAF

مطار :

Emerald, أستراليا

دائرة عرض: 23-34-03S, خط طول: 148-10-45E, ارتفاع: 190 متر

مراقبة الطقس الحالي

تاريخ ووقت الإصدار 1ساعة و 18 دقيقة قبل الساعة 15:00UTC
ريح 9 عقدة من الجنوب/الجنوب الشرقي
درجة الحرارة 18°درجة مئوية
الرطوبة 42%
ضغط 1015 hPa
الرؤية 10 كم أو أكثر

METAR: YEML 061500Z AUTO 16009KT 9999 // NCD 18/05 Q1015

زمن: 02:18 (16:18 UTC)


TAF: مفقودة

أرصاد الطقس والتوقعات من أكثر من 4000 مطار (تقارير الطقس للمطار METAR والتنبؤ بالطقس بالمطارTAF).

المحطات المتاحة هي النقط الصفراء والحمراء على الخريطة.

حرك المؤشر فوق النقطة لمعرفة اسم المحطة.

ثم انقر لمعرفة أرصاد وتوقعات الطقس.

لتغيير الخارطة: اضغط على الأزرار الخضراء مع رمز الصليب الأسود للتكبير. على الزر الأخضر مع شرطة للتصغير، أو على الأسهم الخضراء للخرائط المجاورة.


METAR-TAF: